M I D A S
Marine Information and Data Acquisition System
Tripno 2238 of the Zeeleeuw from 2011-09-09 06:38:40 to 2011-09-09 13:12:56
Back to CruiseResearch ActivitiesStationsMapUnderway DataData graphs

EquipmentUnitsComments
TimeDGPSUTC
LatitudeDGPSDM.mWGS84
LongitudeDGPSDM.mWGS84
SpeedMeteo Stationm/sRelative wind speed
DirectionMeteo StationdegRelative wind direction
TemperatureMeteo Stationdeg CelciusAir temperature
PressureMeteo StationPaAtmospheric pressure
HumidityMeteo Station%Relative humidity
Missing or incorrect values are displayed as -999
Metereological data collected by the RV Zeeleeuw from 2011-09-09 06:28:33 to 2011-09-09 13:12:09
Time Latitude Longitude Speed Direction Temperature Pressure Humidity
2011-09-09 06:29 51°13.643 2°55.984 2.7 51 16.4 100990 45
2011-09-09 06:30 51°13.672 2°55.877 4 39 16.4 100990 44
2011-09-09 06:31 51°13.724 2°55.771 3.2 44 16.4 100990 44
2011-09-09 06:32 51°13.792 2°55.67 2.8 57 16.4 101000 45
2011-09-09 06:33 51°13.871 2°55.605 1.1 26 16.4 100990 46
2011-09-09 06:34 51°13.942 2°55.602 0.1 55 16.4 101000 45
2011-09-09 06:35 51°13.975 2°55.616 0.7 333 16.4 101000 45
2011-09-09 06:36 51°13.98 2°55.572 1.4 305 16.4 100990 45
2011-09-09 06:37 51°14.03 2°55.518 2.1 308 16.4 100990 46
2011-09-09 06:38 51°14.107 2°55.455 0.1 305 16.4 101000 46
2011-09-09 06:39 51°14.2 2°55.376 3.8 310 16.4 101000 45
2011-09-09 06:40 51°14.307 2°55.277 4.1 306 16.4 100990 46
2011-09-09 06:41 51°14.443 2°55.146 7.4 302 16.4 100990 45
2011-09-09 06:42 51°14.597 2°54.966 7.3 303 16.4 100980 45
2011-09-09 06:43 51°14.76 2°54.761 6.7 303 16.4 100970 45
2011-09-09 06:44 51°14.925 2°54.562 7.5 306 16.5 100980 45
2011-09-09 06:45 51°15.083 2°54.353 5 308 16.5 100970 46
2011-09-09 06:46 51°15.244 2°54.153 7.9 306 16.5 100970 46
2011-09-09 06:47 51°15.405 2°53.949 6.6 309 16.6 100960 45
2011-09-09 06:48 51°15.57 2°53.752 7.2 304 16.6 100970 46
2011-09-09 06:49 51°15.737 2°53.564 6.9 309 16.6 100970 45
2011-09-09 06:50 51°15.914 2°53.404 6.2 302 16.6 100970 46
2011-09-09 06:51 51°16.096 2°53.264 6.6 305 16.6 100980 45
2011-09-09 06:52 51°16.275 2°53.114 8 309 16.7 100970 45
2011-09-09 06:53 51°16.459 2°52.997 6.4 301 16.6 100970 46
2011-09-09 06:54 51°16.646 2°52.866 7.5 308 16.6 100970 46
2011-09-09 06:55 51°16.824 2°52.736 8.1 307 16.6 100960 45
2011-09-09 06:56 51°17.009 2°52.611 6.1 306 16.6 100970 45
2011-09-09 06:57 51°17.188 2°52.48 7.7 302 16.6 100960 44
2011-09-09 06:58 51°17.365 2°52.338 8.4 304 16.6 100960 46
2011-09-09 06:59 51°17.532 2°52.165 8.4 302 16.6 100950 45
2011-09-09 07:00 51°17.699 2°51.993 7.8 305 16.6 100960 44
2011-09-09 07:01 51°17.863 2°51.817 9.4 303 16.6 100950 45
2011-09-09 07:02 51°18.021 2°51.631 8.3 309 16.7 100970 45
2011-09-09 07:03 51°18.195 2°51.463 9.1 307 16.7 100960 46
2011-09-09 07:04 51°18.356 2°51.282 8.8 303 16.7 100970 47
2011-09-09 07:05 51°18.522 2°51.093 9.3 310 16.7 100960 44
2011-09-09 07:06 51°18.688 2°50.912 8 302 16.8 100960 46
2011-09-09 07:07 51°18.852 2°50.727 10.9 305 16.9 100960 45
2011-09-09 07:08 51°19.02 2°50.549 6.7 310 16.9 100960 45
2011-09-09 07:09 51°19.184 2°50.362 7.2 302 17 100960 44
2011-09-09 07:10 51°19.347 2°50.172 7.4 307 17 100960 46
2011-09-09 07:11 51°19.518 2°50 8.6 304 17.1 100970 45
2011-09-09 07:12 51°19.689 2°49.826 7.1 304 17 100970 44
2011-09-09 07:13 51°19.854 2°49.634 8.1 304 17 100970 44
2011-09-09 07:14 51°20.016 2°49.437 7.7 303 17.1 100960 45
2011-09-09 07:15 51°20.183 2°49.249 8.6 308 17 100970 46
2011-09-09 07:16 51°20.348 2°49.07 7.2 306 17 100970 45
2011-09-09 07:17 51°20.515 2°48.873 10.6 304 17 100960 44
2011-09-09 07:18 51°20.681 2°48.685 9.8 307 17 100960 45
2011-09-09 07:19 51°20.847 2°48.498 8.5 304 17 100960 45
2011-09-09 07:20 51°21.008 2°48.307 7.8 303 17 100960 45
2011-09-09 07:21 51°21.179 2°48.121 8.9 303 17 100970 43
2011-09-09 07:22 51°21.352 2°47.946 9.7 304 17 100970 44
2011-09-09 07:23 51°21.519 2°47.756 8.5 305 17.1 100970 45
2011-09-09 07:24 51°21.69 2°47.578 8.1 305 17.1 100970 46
2011-09-09 07:25 51°21.857 2°47.389 10.9 309 17.1 100970 46
2011-09-09 07:26 51°22.027 2°47.21 9.1 304 17.1 100970 45
2011-09-09 07:27 51°22.195 2°47.027 7.8 302 17.1 100960 45
2011-09-09 07:28 51°22.355 2°46.828 9.5 305 17 100960 45
2011-09-09 07:29 51°22.522 2°46.646 9.3 305 16.9 100960 44
2011-09-09 07:30 51°22.692 2°46.47 8.8 301 16.9 100960 45
2011-09-09 07:31 51°22.856 2°46.279 10.4 309 16.9 100950 44
2011-09-09 07:32 51°23.021 2°46.091 8.3 306 16.9 100960 45
2011-09-09 07:33 51°23.188 2°45.906 9.8 309 16.9 100960 45
2011-09-09 07:34 51°23.341 2°45.689 12 310 17 100950 45
2011-09-09 07:35 51°23.499 2°45.481 9.8 309 17 100960 44
2011-09-09 07:36 51°23.646 2°45.254 10.7 303 17 100960 44
2011-09-09 07:37 51°23.791 2°45.022 8.7 305 17 100960 43
2011-09-09 07:38 51°23.938 2°44.794 9.1 308 17 100950 45
2011-09-09 07:39 51°24.097 2°44.592 7.8 301 17 100960 43
2011-09-09 07:40 51°24.257 2°44.423 8.4 301 17 100960 45
2011-09-09 07:41 51°24.368 2°44.289 8.3 309 17 100960 44
2011-09-09 07:42 51°24.464 2°44.175 6.6 302 17 100960 44
2011-09-09 07:43 51°24.555 2°44.054 6.7 306 17 100960 43
2011-09-09 07:44 51°24.642 2°43.927 6.7 301 17 100960 44
2011-09-09 07:45 51°24.712 2°43.808 6.1 305 17 100960 43
2011-09-09 07:46 51°24.718 2°43.771 5.5 306 17 100960 43
2011-09-09 07:47 51°24.714 2°43.765 4.2 305 17 100970 43
2011-09-09 07:48 51°24.688 2°43.767 5.9 56 17.1 100970 46
2011-09-09 07:49 51°24.66 2°43.766 5.2 52 17 100970 44
2011-09-09 07:50 51°24.658 2°43.764 5.9 305 16.9 100960 42
2011-09-09 07:51 51°24.674 2°43.735 7 304 17 100960 44
2011-09-09 07:52 51°24.675 2°43.727 5.7 307 17 100970 43
2011-09-09 07:53 51°24.671 2°43.732 5.6 309 17 100970 43
2011-09-09 07:54 51°24.668 2°43.735 5.1 302 17 100980 44
2011-09-09 07:55 51°24.67 2°43.733 5.5 306 17.1 100980 44
2011-09-09 07:56 51°24.674 2°43.721 5.5 308 17.1 100980 45
2011-09-09 07:57 51°24.674 2°43.712 6 304 17.1 100980 43
2011-09-09 07:58 51°24.674 2°43.709 5.2 308 17 100980 44
2011-09-09 07:59 51°24.673 2°43.71 5.2 308 17 100980 43
2011-09-09 08:00 51°24.671 2°43.714 7.2 309 17 100990 43
2011-09-09 08:01 51°24.669 2°43.719 6.3 309 17 100980 43
2011-09-09 08:02 51°24.672 2°43.718 5 308 17 100990 45
2011-09-09 08:03 51°24.675 2°43.714 5 309 17 100980 45
2011-09-09 08:04 51°24.677 2°43.713 4.2 306 16.9 100990 45
2011-09-09 08:05 51°24.675 2°43.715 4.6 304 16.9 100990 44
2011-09-09 08:06 51°24.673 2°43.721 5.5 307 16.9 100990 44
2011-09-09 08:07 51°24.672 2°43.726 4.9 309 16.9 100990 45
2011-09-09 08:08 51°24.672 2°43.731 6.5 308 16.9 100990 44
2011-09-09 08:09 51°24.675 2°43.725 4.9 307 16.8 100990 42
2011-09-09 08:10 51°24.676 2°43.719 5.5 303 16.8 100990 44
2011-09-09 08:11 51°24.675 2°43.725 5.5 304 16.8 100990 45
2011-09-09 08:12 51°24.675 2°43.732 6.4 305 16.9 100990 45
2011-09-09 08:13 51°24.678 2°43.735 6.2 307 16.9 100990 46
2011-09-09 08:14 51°24.673 2°43.748 3.8 303 16.8 100990 46
2011-09-09 08:15 51°24.671 2°43.758 5.1 307 16.8 101000 46
2011-09-09 08:16 51°24.685 2°43.726 5.6 303 16.8 100990 46
2011-09-09 08:17 51°24.679 2°43.676 4.9 300 16.8 100980 43
2011-09-09 08:18 51°24.681 2°43.685 6.2 303 16.8 100990 44
2011-09-09 08:19 51°24.681 2°43.688 4.7 307 16.8 100990 44
2011-09-09 08:20 51°24.679 2°43.691 4.5 328 16.8 100990 46
2011-09-09 08:21 51°24.679 2°43.7 3.6 328 16.8 100980 45
2011-09-09 08:22 51°24.675 2°43.704 3.7 332 16.8 100990 46
2011-09-09 08:23 51°24.673 2°43.715 4.4 338 16.8 100980 44
2011-09-09 08:24 51°24.673 2°43.729 4.1 345 16.8 100990 46
2011-09-09 08:25 51°24.675 2°43.744 3.6 351 16.8 100990 44
2011-09-09 08:26 51°24.678 2°43.761 4 358 16.7 100990 46
2011-09-09 08:27 51°24.664 2°43.803 4.1 22 16.7 100990 45
2011-09-09 08:28 51°24.691 2°43.942 1.5 34 16.7 101000 44
2011-09-09 08:29 51°24.754 2°44.187 -999 3 16.7 101000 45
2011-09-09 08:30 51°24.846 2°44.467 0.1 -999 16.7 101000 45
2011-09-09 08:31 51°24.964 2°44.745 1.4 346 16.7 101000 46
2011-09-09 08:32 51°25.083 2°45.02 1.2 357 16.7 101000 44
2011-09-09 08:33 51°25.21 2°45.285 -999 339 16.7 101000 43
2011-09-09 08:34 51°25.359 2°45.515 0.2 331 16.7 101010 46
2011-09-09 08:35 51°25.509 2°45.742 0.1 335 16.7 101000 45
2011-09-09 08:36 51°25.658 2°45.982 0.4 346 16.7 101010 45
2011-09-09 08:37 51°25.801 2°46.221 -999 341 16.7 101000 45
2011-09-09 08:38 51°25.947 2°46.459 -999 349 16.7 101000 45
2011-09-09 08:39 51°26.086 2°46.702 0.4 348 16.7 101000 45
2011-09-09 08:40 51°26.24 2°46.931 0.1 332 16.7 101000 46
2011-09-09 08:41 51°26.41 2°47.125 0.1 325 16.7 101010 45
2011-09-09 08:42 51°26.576 2°47.327 0.2 303 16.7 101010 45
2011-09-09 08:43 51°26.735 2°47.535 0.3 308 16.7 101010 45
2011-09-09 08:44 51°26.898 2°47.742 0.1 305 16.8 101010 47
2011-09-09 08:45 51°27.072 2°47.937 0.5 324 16.7 101010 45
2011-09-09 08:46 51°27.238 2°48.141 0.5 327 16.7 101010 46
2011-09-09 08:47 51°27.401 2°48.353 0.6 301 16.8 101020 45
2011-09-09 08:48 51°27.567 2°48.563 -999 333 16.7 101020 45
2011-09-09 08:49 51°27.732 2°48.77 0.3 335 16.8 101010 44
2011-09-09 08:50 51°27.899 2°48.975 0.1 346 16.8 101020 45
2011-09-09 08:51 51°28.067 2°49.182 0.3 303 16.8 101020 45
2011-09-09 08:52 51°28.233 2°49.387 1 331 16.8 101010 46
2011-09-09 08:53 51°28.401 2°49.605 0.9 302 16.8 101010 46
2011-09-09 08:54 51°28.57 2°49.807 0.2 334 16.8 101020 45
2011-09-09 08:55 51°28.735 2°50.012 -999 331 16.8 101020 45
2011-09-09 08:56 51°28.906 2°50.223 -999 326 16.8 101020 46
2011-09-09 08:57 51°29.081 2°50.417 1.4 332 16.8 101020 45
2011-09-09 08:58 51°29.259 2°50.603 1.2 306 16.8 101020 46
2011-09-09 08:59 51°29.434 2°50.798 0.2 334 16.8 101020 44
2011-09-09 09:00 51°29.61 2°50.994 0.6 328 16.8 101020 45
2011-09-09 09:01 51°29.784 2°51.188 -999 335 16.8 101020 47
2011-09-09 09:02 51°29.961 2°51.375 0.1 324 16.8 101010 45
2011-09-09 09:03 51°30.148 2°51.531 0.9 308 16.8 101020 45
2011-09-09 09:04 51°30.331 2°51.683 0.2 324 16.8 101010 45
2011-09-09 09:05 51°30.514 2°51.856 0.6 307 16.8 101020 45
2011-09-09 09:06 51°30.693 2°52.014 0.1 305 16.8 101010 46
2011-09-09 09:07 51°30.879 2°52.177 0.1 306 16.8 101020 45
2011-09-09 09:08 51°31.046 2°52.321 -999 55 16.9 101030 46
2011-09-09 09:09 51°31.142 2°52.407 -999 55 16.8 101030 45
2011-09-09 09:10 51°31.211 2°52.492 -999 55 16.9 101020 46
2011-09-09 09:11 51°31.269 2°52.581 -999 55 17 101020 46
2011-09-09 09:12 51°31.308 2°52.654 -999 55 16.9 101020 46
2011-09-09 09:13 51°31.353 2°52.694 -999 306 16.9 101020 46
2011-09-09 09:14 51°31.387 2°52.674 4.7 304 16.9 101020 45
2011-09-09 09:15 51°31.397 2°52.631 5 305 16.9 101010 46
2011-09-09 09:16 51°31.379 2°52.58 7.4 324 16.9 101010 46
2011-09-09 09:17 51°31.33 2°52.522 6.7 323 16.9 101010 46
2011-09-09 09:18 51°31.283 2°52.494 5.7 336 16.9 101000 46
2011-09-09 09:19 51°31.255 2°52.501 5.4 346 16.9 101010 45
2011-09-09 09:20 51°31.266 2°52.524 4.7 357 16.9 101010 45
2011-09-09 09:21 51°31.278 2°52.542 4.8 7 16.9 101020 47
2011-09-09 09:22 51°31.281 2°52.552 5.3 349 16.9 101020 46
2011-09-09 09:23 51°31.277 2°52.561 5.1 333 16.9 101020 45
2011-09-09 09:24 51°31.271 2°52.566 4.2 303 16.9 101020 46
2011-09-09 09:25 51°31.266 2°52.566 5.7 303 16.9 101020 46
2011-09-09 09:26 51°31.268 2°52.565 5.1 308 16.9 101020 46
2011-09-09 09:27 51°31.272 2°52.563 5.5 302 16.9 101010 45
2011-09-09 09:28 51°31.274 2°52.56 6.2 301 16.9 101010 45
2011-09-09 09:29 51°31.274 2°52.559 4.5 307 17 101020 47
2011-09-09 09:30 51°31.273 2°52.561 5.2 325 17 101020 45
2011-09-09 09:31 51°31.272 2°52.565 4.4 307 17 101020 47
2011-09-09 09:32 51°31.27 2°52.566 5.7 307 17 101030 45
2011-09-09 09:33 51°31.269 2°52.566 4.6 304 17 101020 45
2011-09-09 09:34 51°31.269 2°52.566 4.7 301 17.1 101020 46
2011-09-09 09:35 51°31.27 2°52.566 5.7 307 17.1 101020 47
2011-09-09 09:36 51°31.272 2°52.566 5.2 301 17.1 101010 47
2011-09-09 09:37 51°31.272 2°52.566 6 303 17.2 101020 46
2011-09-09 09:38 51°31.271 2°52.566 5.4 329 17.2 101020 45
2011-09-09 09:39 51°31.27 2°52.568 6.6 335 17.2 101020 47
2011-09-09 09:40 51°31.271 2°52.568 6.1 327 17.2 101020 46
2011-09-09 09:41 51°31.27 2°52.568 6.3 330 17.2 101020 46
2011-09-09 09:42 51°31.27 2°52.567 6.2 335 17.2 101020 46
2011-09-09 09:43 51°31.269 2°52.569 5.3 331 17.3 101020 46
2011-09-09 09:44 51°31.269 2°52.568 7.2 330 17.3 101020 47
2011-09-09 09:45 51°31.27 2°52.566 5.9 301 17.3 101020 46
2011-09-09 09:46 51°31.272 2°52.566 5.6 303 17.3 101020 47
2011-09-09 09:47 51°31.273 2°52.566 7.1 333 17.3 101020 47
2011-09-09 09:48 51°31.271 2°52.566 6.3 336 17.3 101020 45
2011-09-09 09:49 51°31.269 2°52.569 6.7 336 17.3 101020 46
2011-09-09 09:50 51°31.269 2°52.571 7.1 335 17.3 101010 47
2011-09-09 09:51 51°31.27 2°52.568 6.3 330 17.3 101020 47
2011-09-09 09:52 51°31.272 2°52.567 6.3 329 17.3 101020 47
2011-09-09 09:53 51°31.272 2°52.568 6.2 335 17.3 101020 45
2011-09-09 09:54 51°31.271 2°52.569 7.4 337 17.3 101020 46
2011-09-09 09:55 51°31.27 2°52.569 6.3 337 17.3 101020 47
2011-09-09 09:56 51°31.27 2°52.569 6.6 334 17.3 101020 46
2011-09-09 09:57 51°31.271 2°52.569 6.4 334 17.3 101020 45
2011-09-09 09:58 51°31.271 2°52.568 5.9 334 17.3 101020 47
2011-09-09 09:59 51°31.271 2°52.567 7.1 334 17.4 101020 46
2011-09-09 10:00 51°31.271 2°52.569 7.4 336 17.4 101020 47
2011-09-09 10:01 51°31.27 2°52.57 6.3 336 17.4 101020 47
2011-09-09 10:02 51°31.269 2°52.57 6.8 335 17.4 101030 45
2011-09-09 10:03 51°31.27 2°52.569 7.6 332 17.4 101030 47
2011-09-09 10:04 51°31.272 2°52.569 6.9 333 17.4 101030 47
2011-09-09 10:05 51°31.273 2°52.565 5.9 332 17.4 101030 47
2011-09-09 10:06 51°31.273 2°52.564 6.9 333 17.4 101030 45
2011-09-09 10:07 51°31.273 2°52.567 5.6 336 17.4 101040 47
2011-09-09 10:08 51°31.271 2°52.568 5.6 338 17.4 101030 46
2011-09-09 10:09 51°31.27 2°52.568 6.7 338 17.4 101030 46
2011-09-09 10:10 51°31.271 2°52.57 6.4 336 17.4 101030 46
2011-09-09 10:11 51°31.271 2°52.567 7 335 17.4 101030 45
2011-09-09 10:12 51°31.273 2°52.565 6 332 17.4 101030 46
2011-09-09 10:13 51°31.275 2°52.566 6.3 334 17.4 101030 45
2011-09-09 10:14 51°31.273 2°52.567 6.3 338 17.4 101030 47
2011-09-09 10:15 51°31.272 2°52.567 6.1 337 17.4 101030 46
2011-09-09 10:16 51°31.272 2°52.568 6.9 338 17.4 101030 47
2011-09-09 10:17 51°31.273 2°52.568 6.4 334 17.4 101030 47
2011-09-09 10:18 51°31.272 2°52.567 6.7 335 17.4 101030 48
2011-09-09 10:19 51°31.272 2°52.567 6.4 338 17.4 101030 47
2011-09-09 10:20 51°31.272 2°52.569 6.6 338 17.4 101030 47
2011-09-09 10:21 51°31.271 2°52.569 7.1 337 17.5 101030 47
2011-09-09 10:22 51°31.271 2°52.568 6.7 338 17.4 101030 46
2011-09-09 10:23 51°31.272 2°52.568 5.5 338 17.5 101030 47
2011-09-09 10:24 51°31.273 2°52.567 5.8 334 17.5 101030 47
2011-09-09 10:25 51°31.269 2°52.557 5.7 335 17.5 101030 46
2011-09-09 10:26 51°31.262 2°52.544 5.6 337 17.5 101020 47
2011-09-09 10:27 51°31.256 2°52.534 5.9 338 17.5 101030 46
2011-09-09 10:28 51°31.257 2°52.538 5.6 341 17.5 101030 47
2011-09-09 10:29 51°31.262 2°52.554 5.9 339 17.5 101030 46
2011-09-09 10:30 51°31.269 2°52.578 5.8 340 17.5 101030 47
2011-09-09 10:31 51°31.28 2°52.607 5.8 343 17.5 101030 46
2011-09-09 10:32 51°31.289 2°52.639 4.7 352 17.5 101030 46
2011-09-09 10:33 51°31.297 2°52.675 5.6 1 17.5 101030 47
2011-09-09 10:34 51°31.304 2°52.714 6 7 17.4 101040 46
2011-09-09 10:35 51°31.309 2°52.756 5.3 8 17.5 101050 46
2011-09-09 10:36 51°31.308 2°52.794 5.6 1 17.4 101040 47
2011-09-09 10:37 51°31.3 2°52.829 6.2 360 17.4 101040 46
2011-09-09 10:38 51°31.289 2°52.862 5.5 358 17.4 101040 46
2011-09-09 10:39 51°31.277 2°52.894 6.3 358 17.4 101030 47
2011-09-09 10:40 51°31.264 2°52.92 6.8 356 17.4 101030 47
2011-09-09 10:41 51°31.25 2°52.946 5.2 354 17.4 101040 47
2011-09-09 10:42 51°31.232 2°52.967 6.3 353 17.4 101040 46
2011-09-09 10:43 51°31.214 2°52.987 7 354 17.4 101040 47
2011-09-09 10:44 51°31.193 2°53.005 6.2 351 17.4 101040 47
2011-09-09 10:45 51°31.117 2°53.001 8.4 345 17.4 101040 46
2011-09-09 10:46 51°30.979 2°52.97 9 345 17.4 101030 46
2011-09-09 10:47 51°30.808 2°52.909 8.8 345 17.4 101020 47
2011-09-09 10:48 51°30.623 2°52.895 10.3 345 17.4 101030 46
2011-09-09 10:49 51°30.437 2°52.886 9.6 345 17.4 101030 45
2011-09-09 10:50 51°30.252 2°52.857 12 345 17.4 101030 46
2011-09-09 10:51 51°30.06 2°52.842 8.9 343 17.5 101030 47
2011-09-09 10:52 51°29.875 2°52.82 10.5 344 17.4 101030 46
2011-09-09 10:53 51°29.687 2°52.787 9.9 346 17.5 101030 46
2011-09-09 10:54 51°29.503 2°52.769 14.2 345 17.5 101020 47
2011-09-09 10:55 51°29.316 2°52.72 9.1 344 17.5 101030 46
2011-09-09 10:56 51°29.135 2°52.688 8.7 344 17.5 101030 47
2011-09-09 10:57 51°28.947 2°52.654 5.6 344 17.5 101030 45
2011-09-09 10:58 51°28.77 2°52.598 15 345 17.5 101030 46
2011-09-09 10:59 51°28.584 2°52.545 12.6 345 17.5 101030 47
2011-09-09 11:00 51°28.401 2°52.497 10.5 344 17.5 101030 47
2011-09-09 11:01 51°28.219 2°52.434 10.9 343 17.5 101030 46
2011-09-09 11:02 51°28.033 2°52.381 14.1 345 17.5 101030 46
2011-09-09 11:03 51°27.855 2°52.335 9.5 344 17.5 101030 47
2011-09-09 11:04 51°27.668 2°52.284 13 343 17.5 101030 47
2011-09-09 11:05 51°27.489 2°52.227 10.3 344 17.5 101030 45
2011-09-09 11:06 51°27.304 2°52.157 9.8 343 17.5 101030 46
2011-09-09 11:07 51°27.122 2°52.11 5.3 342 17.5 101030 46
2011-09-09 11:08 51°26.939 2°52.064 6.1 343 17.5 101030 47
2011-09-09 11:09 51°26.766 2°51.955 14.6 339 17.5 101030 47
2011-09-09 11:10 51°26.687 2°51.819 8.3 326 17.5 101040 47
2011-09-09 11:11 51°26.694 2°51.766 7.4 302 17.6 101040 46
2011-09-09 11:12 51°26.719 2°51.786 6.1 302 17.6 101040 47
2011-09-09 11:13 51°26.741 2°51.768 6 323 17.6 101050 45
2011-09-09 11:14 51°26.753 2°51.778 5.3 301 17.6 101060 47
2011-09-09 11:15 51°26.766 2°51.801 4.9 334 17.6 101050 46
2011-09-09 11:16 51°26.771 2°51.816 8.2 334 17.7 101050 47
2011-09-09 11:17 51°26.767 2°51.815 5.7 334 17.6 101050 47
2011-09-09 11:18 51°26.766 2°51.818 7.5 331 17.6 101050 46
2011-09-09 11:19 51°26.767 2°51.816 7.5 303 17.6 101050 46
2011-09-09 11:20 51°26.77 2°51.812 6.8 330 17.6 101050 47
2011-09-09 11:21 51°26.771 2°51.811 7.1 331 17.7 101060 46
2011-09-09 11:22 51°26.77 2°51.814 8.4 335 17.7 101050 47
2011-09-09 11:23 51°26.768 2°51.815 6.8 333 17.6 101050 46
2011-09-09 11:24 51°26.769 2°51.815 8.7 329 17.6 101050 46
2011-09-09 11:25 51°26.77 2°51.814 6.6 329 17.7 101040 47
2011-09-09 11:26 51°26.769 2°51.813 6.2 331 17.7 101050 46
2011-09-09 11:27 51°26.767 2°51.817 7.7 334 17.7 101050 47
2011-09-09 11:28 51°26.768 2°51.816 8.5 330 17.7 101050 47
2011-09-09 11:29 51°26.768 2°51.815 8.3 330 17.7 101050 46
2011-09-09 11:30 51°26.769 2°51.815 9.2 329 17.7 101040 47
2011-09-09 11:31 51°26.769 2°51.813 8.8 330 17.7 101050 47
2011-09-09 11:32 51°26.77 2°51.811 8.7 329 17.7 101050 47
2011-09-09 11:33 51°26.77 2°51.813 7.1 331 17.7 101040 46
2011-09-09 11:34 51°26.77 2°51.813 8.5 330 17.7 101040 47
2011-09-09 11:35 51°26.77 2°51.812 6.8 330 17.7 101030 47
2011-09-09 11:36 51°26.769 2°51.813 6.9 331 17.7 101050 46
2011-09-09 11:37 51°26.768 2°51.815 6 335 17.7 101040 47
2011-09-09 11:38 51°26.768 2°51.815 6.4 332 17.7 101050 46
2011-09-09 11:39 51°26.769 2°51.815 8.8 329 17.7 101050 46
2011-09-09 11:40 51°26.769 2°51.814 8.9 330 17.7 101050 47
2011-09-09 11:41 51°26.769 2°51.814 7.8 329 17.7 101050 47
2011-09-09 11:42 51°26.769 2°51.815 6.3 302 17.7 101050 46
2011-09-09 11:43 51°26.769 2°51.814 7.6 334 17.7 101050 46
2011-09-09 11:44 51°26.769 2°51.814 4.4 328 17.7 101050 47
2011-09-09 11:45 51°26.77 2°51.814 6.9 328 17.7 101050 45
2011-09-09 11:46 51°26.771 2°51.812 7 330 17.7 101040 46
2011-09-09 11:47 51°26.772 2°51.811 6.1 331 17.8 101050 46
2011-09-09 11:48 51°26.77 2°51.813 8.4 333 17.8 101040 47
2011-09-09 11:49 51°26.767 2°51.815 8.1 335 17.7 101050 47
2011-09-09 11:50 51°26.761 2°51.804 8.8 332 17.7 101040 47
2011-09-09 11:51 51°26.756 2°51.791 8.1 328 17.7 101050 45
2011-09-09 11:52 51°26.758 2°51.791 7 302 17.7 101050 46
2011-09-09 11:53 51°26.766 2°51.805 6.2 329 17.7 101040 46
2011-09-09 11:54 51°26.762 2°51.814 10 346 17.7 101040 45
2011-09-09 11:55 51°26.699 2°51.81 12 341 17.7 101030 46
2011-09-09 11:56 51°26.562 2°51.761 13.3 343 17.7 101010 46
2011-09-09 11:57 51°26.385 2°51.764 9.9 348 17.6 101010 46
2011-09-09 11:58 51°26.191 2°51.781 11.6 345 17.6 101020 45
2011-09-09 11:59 51°26.003 2°51.792 10.6 344 17.6 101020 46
2011-09-09 12:00 51°25.809 2°51.786 10.4 345 17.6 101020 47
2011-09-09 12:01 51°25.621 2°51.803 13.3 347 17.6 101020 46
2011-09-09 12:02 51°25.432 2°51.804 10.5 345 17.5 101020 46
2011-09-09 12:03 51°25.244 2°51.815 10.4 346 17.5 101020 45
2011-09-09 12:04 51°25.055 2°51.827 13.2 345 17.5 101030 45
2011-09-09 12:05 51°24.865 2°51.825 12.1 345 17.5 101030 46
2011-09-09 12:06 51°24.683 2°51.836 5 344 17.5 101030 45
2011-09-09 12:07 51°24.491 2°51.849 10.7 346 17.5 101020 46
2011-09-09 12:08 51°24.303 2°51.838 13.4 345 17.5 101040 46
2011-09-09 12:09 51°24.111 2°51.844 5.7 345 17.5 101050 45
2011-09-09 12:10 51°23.923 2°51.851 11.8 346 17.5 101040 46
2011-09-09 12:11 51°23.731 2°51.846 5.9 346 17.5 101050 46
2011-09-09 12:12 51°23.54 2°51.839 11.5 346 17.5 101040 46
2011-09-09 12:13 51°23.354 2°51.854 9.7 347 17.6 101040 46
2011-09-09 12:14 51°23.163 2°51.858 11 343 17.5 101040 46
2011-09-09 12:15 51°22.975 2°51.866 10.6 345 17.5 101050 46
2011-09-09 12:16 51°22.781 2°51.874 14.2 344 17.6 101040 46
2011-09-09 12:17 51°22.59 2°51.867 9.8 345 17.6 101040 46
2011-09-09 12:18 51°22.4 2°51.884 9.8 347 17.6 101050 46
2011-09-09 12:19 51°22.211 2°51.9 5.4 344 17.6 101040 46
2011-09-09 12:20 51°22.018 2°51.895 9.8 346 17.6 101050 46
2011-09-09 12:21 51°21.827 2°51.893 10.6 346 17.6 101050 46
2011-09-09 12:22 51°21.639 2°51.914 13.2 346 17.6 101040 46
2011-09-09 12:23 51°21.445 2°51.926 11.1 344 17.6 101040 46
2011-09-09 12:24 51°21.258 2°51.928 10 344 17.6 101050 46
2011-09-09 12:25 51°21.067 2°51.919 9.3 345 17.6 101050 46
2011-09-09 12:26 51°20.875 2°51.928 12 343 17.6 101050 46
2011-09-09 12:27 51°20.68 2°51.93 12.2 347 17.6 101050 46
2011-09-09 12:28 51°20.49 2°51.931 11.7 345 17.6 101050 46
2011-09-09 12:29 51°20.295 2°51.932 13.1 347 17.6 101060 47
2011-09-09 12:30 51°20.099 2°51.925 11.6 347 17.6 101040 46
2011-09-09 12:31 51°19.908 2°51.924 14.6 347 17.6 101060 46
2011-09-09 12:32 51°19.713 2°51.904 10.5 347 17.6 101060 46
2011-09-09 12:33 51°19.524 2°51.904 11.3 348 17.7 101050 46
2011-09-09 12:34 51°19.328 2°51.902 13.1 348 17.7 101050 46
2011-09-09 12:35 51°19.139 2°51.903 10.4 350 17.7 101060 45
2011-09-09 12:36 51°18.944 2°51.946 11.2 352 17.7 101060 46
2011-09-09 12:37 51°18.754 2°51.976 12.8 352 17.8 101060 46
2011-09-09 12:38 51°18.566 2°52.016 5.8 350 17.8 101060 45
2011-09-09 12:39 51°18.37 2°52.042 13.5 353 17.8 101050 45
2011-09-09 12:40 51°18.181 2°52.068 10.5 351 17.8 101050 46
2011-09-09 12:41 51°17.986 2°52.11 9.9 352 17.8 101050 45
2011-09-09 12:42 51°17.799 2°52.153 9 352 17.8 101050 46
2011-09-09 12:43 51°17.6 2°52.19 11 354 17.8 101060 45
2011-09-09 12:44 51°17.417 2°52.283 8.2 354 17.8 101060 45
2011-09-09 12:45 51°17.231 2°52.386 9.2 355 17.8 101060 46
2011-09-09 12:46 51°17.05 2°52.516 7.8 353 17.8 101060 45
2011-09-09 12:47 51°16.877 2°52.658 9.4 357 17.9 101060 45
2011-09-09 12:48 51°16.7 2°52.82 8.1 355 17.9 101070 45
2011-09-09 12:49 51°16.524 2°52.966 10.5 356 17.9 101060 45
2011-09-09 12:50 51°16.339 2°53.11 7.7 354 17.9 101070 45
2011-09-09 12:51 51°16.16 2°53.246 10.5 353 17.9 101070 45
2011-09-09 12:52 51°15.973 2°53.379 10.2 356 17.9 101070 45
2011-09-09 12:53 51°15.795 2°53.523 8.6 355 17.9 101080 45
2011-09-09 12:54 51°15.616 2°53.689 6.8 356 17.9 101070 45
2011-09-09 12:55 51°15.458 2°53.889 8.5 354 17.9 101080 45
2011-09-09 12:56 51°15.291 2°54.092 8.7 352 17.9 101070 46
2011-09-09 12:57 51°15.127 2°54.295 6.3 354 17.9 101070 45
2011-09-09 12:58 51°14.967 2°54.487 7.3 352 17.9 101080 46
2011-09-09 12:59 51°14.806 2°54.688 8.4 351 17.9 101080 46
2011-09-09 13:00 51°14.648 2°54.891 7.2 354 17.8 101080 46
2011-09-09 13:01 51°14.492 2°55.072 8.7 350 17.8 101080 45
2011-09-09 13:02 51°14.324 2°55.236 8 356 17.8 101080 46
2011-09-09 13:03 51°14.168 2°55.376 5.1 359 17.8 101080 46
2011-09-09 13:04 51°14.043 2°55.471 6 339 17.9 101090 47
2011-09-09 13:05 51°13.934 2°55.554 4.5 346 17.9 101080 45
2011-09-09 13:06 51°13.839 2°55.623 6 351 18 101080 45
2011-09-09 13:07 51°13.757 2°55.718 2.1 9 18.1 101080 44
2011-09-09 13:08 51°13.697 2°55.825 -999 24 18.2 101080 45
2011-09-09 13:09 51°13.655 2°55.929 0.5 37 18.3 101080 45
2011-09-09 13:10 51°13.637 2°56.01 3 26 18.3 101090 45
2011-09-09 13:11 51°13.635 2°56.016 3.6 40 18.4 101090 46